createdAt,value
2023-05-25T00:02:24.928Z,100.00
2023-05-25T00:04:53.879Z,100.00
2023-05-25T00:07:22.215Z,100.00
2023-05-25T00:09:50.581Z,100.00
2023-05-25T00:12:20.183Z,100.00
2023-05-25T00:14:48.953Z,100.00
2023-05-25T00:17:19.037Z,100.00
2023-05-25T00:19:49.269Z,100.00
2023-05-25T00:22:18.118Z,100.00
2023-05-25T00:24:46.600Z,100.00
2023-05-25T00:27:15.123Z,100.00
2023-05-25T00:29:45.061Z,100.00
2023-05-25T00:32:13.560Z,100.00
2023-05-25T00:34:41.895Z,100.00
2023-05-25T00:37:10.208Z,100.00
2023-05-25T00:39:38.679Z,100.00
2023-05-25T00:42:08.468Z,100.00
2023-05-25T00:44:36.718Z,100.00
2023-05-25T00:47:06.656Z,100.00
2023-05-25T00:49:37.050Z,100.00
2023-05-25T00:52:05.955Z,100.00
2023-05-25T00:54:35.434Z,100.00
2023-05-25T00:57:07.893Z,100.00
2023-05-25T00:59:41.588Z,100.00
2023-05-25T01:02:13.841Z,100.00
2023-05-25T01:04:45.456Z,100.00
2023-05-25T01:07:19.067Z,100.00
2023-05-25T01:09:47.888Z,100.00
2023-05-25T01:12:17.544Z,100.00
2023-05-25T01:14:48.355Z,100.00
2023-05-25T01:17:20.668Z,100.00
2023-05-25T01:20:01.576Z,100.00
2023-05-25T01:22:44.733Z,100.00
2023-05-25T01:25:22.832Z,100.00
2023-05-25T01:27:56.168Z,100.00
2023-05-25T01:30:27.364Z,100.00
2023-05-25T01:32:56.055Z,100.00
2023-05-25T01:35:26.675Z,100.00
2023-05-25T01:37:57.097Z,100.00
2023-05-25T01:40:25.419Z,100.00
2023-05-25T01:42:53.826Z,100.00
2023-05-25T01:45:22.476Z,100.00
2023-05-25T01:47:58.901Z,100.00
2023-05-25T01:50:36.928Z,100.00
2023-05-25T01:53:11.519Z,100.00
2023-05-25T01:55:47.968Z,100.00
2023-05-25T01:58:18.208Z,100.00
2023-05-25T02:00:48.056Z,100.00
2023-05-25T02:03:16.888Z,100.00
2023-05-25T02:05:46.974Z,100.00
2023-05-25T02:08:16.685Z,100.00
2023-05-25T02:10:44.938Z,100.00
2023-05-25T02:13:13.218Z,100.00
2023-05-25T02:15:41.896Z,100.00
2023-05-25T02:18:11.154Z,100.00
2023-05-25T02:20:39.992Z,100.00
2023-05-25T02:23:08.684Z,100.00
2023-05-25T02:25:38.697Z,100.00
2023-05-25T02:28:07.325Z,100.00
2023-05-25T02:30:35.600Z,100.00
2023-05-25T02:33:04.046Z,100.00
2023-05-25T02:35:32.946Z,100.00
2023-05-25T02:38:01.225Z,100.00
2023-05-25T02:40:29.978Z,100.00
2023-05-25T02:42:59.713Z,100.00
2023-05-25T02:45:28.148Z,100.00
2023-05-25T02:47:56.592Z,100.00
2023-05-25T02:50:29.569Z,100.00
2023-05-25T02:52:58.117Z,100.00
2023-05-25T02:55:26.530Z,100.00
2023-05-25T02:57:55.086Z,100.00
2023-05-25T03:00:25.131Z,100.00
2023-05-25T03:02:53.545Z,100.00
2023-05-25T03:05:21.915Z,100.00
2023-05-25T03:07:56.079Z,100.00
2023-05-25T03:10:24.405Z,100.00
2023-05-25T03:12:53.347Z,100.00
2023-05-25T03:15:23.335Z,100.00
2023-05-25T03:17:56.985Z,100.00
2023-05-25T03:20:26.680Z,100.00
2023-05-25T03:22:56.782Z,100.00
2023-05-25T03:25:26.086Z,100.00
2023-05-25T03:27:55.041Z,100.00
2023-05-25T03:30:23.732Z,100.00
2023-05-25T03:32:53.820Z,100.00
2023-05-25T03:35:22.115Z,100.00
2023-05-25T03:37:50.381Z,100.00
2023-05-25T03:40:21.321Z,100.00
2023-05-25T03:42:49.616Z,100.00
2023-05-25T03:45:17.858Z,100.00
2023-05-25T03:47:46.521Z,100.00
2023-05-25T03:50:16.286Z,100.00
2023-05-25T03:52:44.582Z,100.00
2023-05-25T03:55:15.145Z,100.00
2023-05-25T03:57:43.415Z,100.00
2023-05-25T04:00:12.837Z,100.00
2023-05-25T04:02:41.107Z,100.00
2023-05-25T04:05:10.052Z,100.00
2023-05-25T04:07:40.845Z,100.00
2023-05-25T04:10:09.855Z,100.00
2023-05-25T04:12:38.936Z,100.00
2023-05-25T04:15:09.743Z,100.00
2023-05-25T04:17:39.525Z,100.00
2023-05-25T04:20:10.030Z,100.00
2023-05-25T04:22:40.086Z,100.00
2023-05-25T04:25:09.045Z,100.00
2023-05-25T04:27:37.788Z,100.00
2023-05-25T04:30:06.696Z,100.00
2023-05-25T04:32:37.719Z,100.00
2023-05-25T04:35:06.986Z,100.00
2023-05-25T04:37:37.247Z,100.00
2023-05-25T04:40:11.605Z,100.00
2023-05-25T04:42:40.222Z,100.00
2023-05-25T04:45:11.086Z,100.00
2023-05-25T04:47:41.266Z,100.00
2023-05-25T04:50:17.511Z,100.00
2023-05-25T04:52:45.625Z,100.00
2023-05-25T04:55:15.126Z,100.00
2023-05-25T04:57:43.452Z,100.00
2023-05-25T05:00:12.935Z,100.00
2023-05-25T05:02:41.009Z,100.00
2023-05-25T05:05:10.872Z,100.00
2023-05-25T05:07:39.617Z,100.00
2023-05-25T05:10:11.275Z,100.00
2023-05-25T05:12:41.216Z,98.39
2023-05-25T05:15:09.801Z,97.36
2023-05-25T05:17:38.663Z,96.06
2023-05-25T05:20:08.979Z,94.54
2023-05-25T05:22:39.153Z,97.10
2023-05-25T05:25:08.581Z,99.31
2023-05-25T05:27:36.741Z,98.00
2023-05-25T05:30:07.933Z,96.98
2023-05-25T05:32:36.141Z,97.29
2023-05-25T05:35:04.375Z,95.75
2023-05-25T05:37:32.871Z,97.29
2023-05-25T05:40:01.057Z,96.16
2023-05-25T05:42:29.241Z,93.90
2023-05-25T05:44:57.652Z,94.55
2023-05-25T05:47:27.332Z,93.52
2023-05-25T05:49:55.588Z,91.83
2023-05-25T05:52:24.010Z,90.43
2023-05-25T05:54:52.235Z,88.67
2023-05-25T05:57:20.528Z,83.95
2023-05-25T05:59:48.897Z,84.41
2023-05-25T06:02:17.371Z,85.02
2023-05-25T06:04:46.992Z,81.79
2023-05-25T06:07:15.136Z,83.46
2023-05-25T06:09:43.192Z,83.35
2023-05-25T06:12:11.338Z,82.85
2023-05-25T06:14:39.546Z,82.21
2023-05-25T06:17:08.015Z,81.89
2023-05-25T06:19:36.289Z,80.02
2023-05-25T06:22:07.491Z,80.38
2023-05-25T06:24:35.638Z,81.13
2023-05-25T06:27:05.138Z,79.24
2023-05-25T06:29:33.295Z,76.03
2023-05-25T06:32:04.724Z,75.89
2023-05-25T06:34:33.021Z,77.01
2023-05-25T06:37:02.064Z,76.66
2023-05-25T06:39:32.700Z,78.40
2023-05-25T06:42:01.459Z,75.61
2023-05-25T06:44:29.726Z,76.05
2023-05-25T06:46:58.077Z,74.92
2023-05-25T06:49:26.259Z,73.43
2023-05-25T06:51:54.440Z,72.74
2023-05-25T06:54:22.707Z,71.25
2023-05-25T06:56:53.083Z,70.77
2023-05-25T06:59:21.239Z,70.97
2023-05-25T07:01:50.123Z,68.77
2023-05-25T07:04:18.347Z,71.20
2023-05-25T07:06:48.394Z,70.92
2023-05-25T07:09:17.576Z,70.09
2023-05-25T07:11:45.893Z,69.23
2023-05-25T07:14:15.443Z,68.57
2023-05-25T07:16:45.445Z,70.85
2023-05-25T07:19:31.903Z,67.32
2023-05-25T07:22:00.778Z,66.76
2023-05-25T07:24:29.495Z,64.84
2023-05-25T07:26:57.782Z,64.50
2023-05-25T07:29:27.297Z,64.21
2023-05-25T07:31:56.109Z,66.03
2023-05-25T07:34:25.781Z,65.08
2023-05-25T07:36:55.260Z,61.57
2023-05-25T07:39:23.297Z,61.53
2023-05-25T07:41:51.832Z,59.21
2023-05-25T07:44:19.936Z,56.85
2023-05-25T07:46:49.622Z,54.78
2023-05-25T07:49:17.783Z,56.20
2023-05-25T07:51:46.366Z,56.30
2023-05-25T07:54:14.605Z,56.56
2023-05-25T07:56:42.773Z,56.35
2023-05-25T07:59:11.539Z,54.68
2023-05-25T08:01:40.102Z,53.97
2023-05-25T08:04:09.883Z,54.38
2023-05-25T08:06:38.674Z,53.64
2023-05-25T08:09:08.237Z,54.03
2023-05-25T08:11:36.741Z,53.61
2023-05-25T08:14:05.393Z,52.85
2023-05-25T08:16:36.900Z,53.07
2023-05-25T08:19:06.711Z,53.45
2023-05-25T08:21:37.845Z,54.03
2023-05-25T08:24:08.439Z,55.76
2023-05-25T08:26:53.321Z,56.94
2023-05-25T08:29:24.016Z,56.83
2023-05-25T08:31:58.131Z,56.55
2023-05-25T08:34:26.966Z,57.16
2023-05-25T08:36:58.605Z,55.93
2023-05-25T08:39:27.447Z,56.01
2023-05-25T08:41:55.766Z,55.92
2023-05-25T08:44:24.533Z,58.52
2023-05-25T08:46:57.984Z,58.41
2023-05-25T08:49:29.892Z,57.67
2023-05-25T08:52:00.386Z,57.99
2023-05-25T08:54:38.221Z,56.76
2023-05-25T08:57:14.558Z,54.26
2023-05-25T08:59:54.427Z,55.21
2023-05-25T09:02:28.071Z,53.37
2023-05-25T09:04:57.293Z,55.07
2023-05-25T09:07:28.154Z,56.70
2023-05-25T09:09:57.976Z,56.22
2023-05-25T09:12:26.610Z,56.04
2023-05-25T09:14:55.548Z,54.62
2023-05-25T09:17:24.371Z,52.96
2023-05-25T09:19:53.138Z,52.00
2023-05-25T09:22:21.810Z,50.42
2023-05-25T09:24:52.011Z,49.32
2023-05-25T09:27:21.459Z,48.09
2023-05-25T09:29:50.280Z,47.04
2023-05-25T09:32:21.325Z,46.77
2023-05-25T09:34:50.023Z,47.31
2023-05-25T09:37:20.224Z,48.54
2023-05-25T09:39:52.976Z,48.86
2023-05-25T09:42:22.136Z,47.40
2023-05-25T09:44:50.544Z,46.38
2023-05-25T09:47:19.256Z,46.97
2023-05-25T09:49:50.096Z,46.54
2023-05-25T09:52:18.700Z,45.59
2023-05-25T09:54:47.422Z,43.77
2023-05-25T09:57:18.196Z,45.17
2023-05-25T09:59:53.958Z,44.39
2023-05-25T10:02:22.613Z,43.63
2023-05-25T10:04:50.944Z,43.67
2023-05-25T10:07:20.125Z,43.34
2023-05-25T10:09:53.547Z,41.41
2023-05-25T10:12:25.502Z,41.87
2023-05-25T10:14:57.057Z,42.17
2023-05-25T10:17:27.694Z,43.61
2023-05-25T10:19:58.984Z,42.99
2023-05-25T10:22:34.111Z,42.58
2023-05-25T10:25:09.557Z,43.74
2023-05-25T10:27:42.277Z,42.60
2023-05-25T10:30:11.825Z,42.05
2023-05-25T10:32:42.241Z,42.39
2023-05-25T10:35:11.550Z,42.53
2023-05-25T10:37:41.179Z,43.38
2023-05-25T10:40:10.258Z,43.14
2023-05-25T10:42:41.287Z,43.46
2023-05-25T10:45:14.495Z,44.71
2023-05-25T10:47:43.382Z,44.63
2023-05-25T10:50:22.570Z,43.54
2023-05-25T10:53:01.727Z,42.94
2023-05-25T10:55:32.756Z,41.86
2023-05-25T10:58:16.968Z,42.03
2023-05-25T11:00:59.608Z,42.29
2023-05-25T11:03:49.921Z,42.59
2023-05-25T11:06:21.593Z,43.20
2023-05-25T11:08:51.248Z,45.77
2023-05-25T11:11:19.392Z,45.81
2023-05-25T11:13:49.490Z,50.95
2023-05-25T11:16:20.243Z,53.97
2023-05-25T11:18:52.836Z,54.30
2023-05-25T11:21:43.901Z,55.48
2023-05-25T11:24:15.229Z,55.57
2023-05-25T11:26:57.894Z,56.18
2023-05-25T11:29:33.243Z,55.87
2023-05-25T11:32:02.858Z,63.00
2023-05-25T11:34:33.362Z,69.98
2023-05-25T11:37:04.368Z,71.49
2023-05-25T11:39:32.811Z,74.57
2023-05-25T11:42:05.203Z,75.67
2023-05-25T11:44:36.927Z,76.43
2023-05-25T11:47:08.803Z,70.65
2023-05-25T11:49:42.062Z,71.72
2023-05-25T11:52:10.555Z,71.43
2023-05-25T11:54:41.190Z,70.19
2023-05-25T11:57:17.205Z,71.04
2023-05-25T11:59:51.509Z,68.63
2023-05-25T12:02:20.249Z,65.46
2023-05-25T12:04:55.956Z,64.95
2023-05-25T12:07:24.646Z,61.10
2023-05-25T12:09:53.030Z,56.09
2023-05-25T12:12:21.636Z,54.97
2023-05-25T12:14:52.020Z,55.25
2023-05-25T12:17:22.684Z,57.10
2023-05-25T12:19:51.907Z,57.36
2023-05-25T12:22:21.558Z,56.78
2023-05-25T12:24:50.883Z,54.79
2023-05-25T12:27:23.184Z,52.85
2023-05-25T12:29:53.534Z,51.23
2023-05-25T12:32:21.963Z,50.42
2023-05-25T12:34:50.153Z,50.61
2023-05-25T12:37:22.579Z,49.22
2023-05-25T12:39:51.982Z,48.98
2023-05-25T12:42:20.904Z,49.06
2023-05-25T12:44:55.531Z,47.18
2023-05-25T12:47:28.817Z,47.57
2023-05-25T12:50:12.904Z,48.13
2023-05-25T12:52:44.334Z,46.93
2023-05-25T12:55:29.388Z,47.43
2023-05-25T12:57:58.638Z,46.60
2023-05-25T13:00:31.954Z,47.49
2023-05-25T13:03:02.085Z,46.90
2023-05-25T13:05:34.039Z,48.64
2023-05-25T13:08:03.321Z,47.84
2023-05-25T13:10:32.963Z,47.78
2023-05-25T13:13:02.168Z,48.18
2023-05-25T13:15:30.360Z,49.49
2023-05-25T13:17:59.093Z,50.97
2023-05-25T13:20:32.979Z,50.55
2023-05-25T13:23:03.201Z,49.23
2023-05-25T13:25:31.966Z,46.75
2023-05-25T13:28:01.328Z,50.61
2023-05-25T13:30:29.675Z,57.30
2023-05-25T13:32:58.098Z,59.88
2023-05-25T13:35:41.714Z,62.48
2023-05-25T13:38:11.816Z,65.06
2023-05-25T13:40:40.057Z,67.07
2023-05-25T13:43:08.630Z,67.82
2023-05-25T13:45:36.844Z,66.34
2023-05-25T13:48:05.321Z,68.46
2023-05-25T13:50:33.577Z,69.84
2023-05-25T13:53:01.702Z,69.11
2023-05-25T13:55:31.244Z,69.39
2023-05-25T13:57:59.506Z,70.36
2023-05-25T14:00:27.724Z,71.42
2023-05-25T14:02:56.031Z,71.86
2023-05-25T14:05:24.358Z,71.64
2023-05-25T14:07:55.716Z,70.74
2023-05-25T14:10:24.527Z,70.41
2023-05-25T14:12:54.131Z,74.86
2023-05-25T14:15:22.218Z,79.05
2023-05-25T14:17:50.640Z,88.62
2023-05-25T14:20:25.537Z,95.52
2023-05-25T14:22:54.449Z,100.00
2023-05-25T14:25:23.063Z,100.00
2023-05-25T14:27:54.633Z,100.00
2023-05-25T14:30:24.203Z,100.00
2023-05-25T14:32:52.683Z,100.00
2023-05-25T14:35:20.979Z,100.00
2023-05-25T14:37:49.137Z,100.00
2023-05-25T14:40:17.732Z,100.00
2023-05-25T14:42:46.273Z,100.00
2023-05-25T14:45:16.082Z,100.00
2023-05-25T14:47:46.136Z,100.00
2023-05-25T14:50:14.807Z,100.00
2023-05-25T14:52:43.159Z,100.00
2023-05-25T14:55:11.656Z,100.00
2023-05-25T14:57:40.220Z,100.00
2023-05-25T15:00:10.022Z,100.00
2023-05-25T15:02:38.389Z,100.00
2023-05-25T15:05:09.576Z,100.00
2023-05-25T15:07:38.102Z,99.05
2023-05-25T15:10:10.284Z,97.20
2023-05-25T15:12:38.590Z,95.97
2023-05-25T15:15:09.395Z,93.46
2023-05-25T15:17:38.571Z,94.23
2023-05-25T15:20:09.231Z,97.42
2023-05-25T15:22:37.917Z,93.96
2023-05-25T15:25:07.115Z,89.75
2023-05-25T15:27:35.447Z,89.36
2023-05-25T15:30:03.707Z,90.72
2023-05-25T15:32:31.889Z,91.39
2023-05-25T15:35:00.071Z,90.01
2023-05-25T15:37:31.143Z,83.41
2023-05-25T15:39:59.477Z,84.23
2023-05-25T15:42:27.618Z,85.50
2023-05-25T15:44:55.823Z,87.88
2023-05-25T15:47:24.598Z,88.39
2023-05-25T15:49:53.203Z,87.75
2023-05-25T15:52:21.385Z,86.89
2023-05-25T15:54:51.712Z,87.50
2023-05-25T15:57:20.444Z,87.63
2023-05-25T15:59:48.771Z,89.59
2023-05-25T16:02:16.948Z,91.55
2023-05-25T16:04:45.381Z,90.30
2023-05-25T16:07:14.271Z,90.88
2023-05-25T16:09:42.376Z,89.85
2023-05-25T16:12:11.901Z,90.11
2023-05-25T16:14:40.699Z,91.61
2023-05-25T16:17:08.884Z,90.87
2023-05-25T16:19:37.124Z,89.86
2023-05-25T16:22:06.486Z,87.41
2023-05-25T16:24:34.610Z,87.53
2023-05-25T16:27:03.157Z,88.34
2023-05-25T16:29:32.897Z,87.67
2023-05-25T16:32:00.948Z,88.11
2023-05-25T16:34:29.101Z,87.24
2023-05-25T16:36:57.174Z,87.86
2023-05-25T16:39:25.325Z,88.69
2023-05-25T16:41:53.408Z,88.67
2023-05-25T16:44:21.695Z,89.31
2023-05-25T16:46:52.079Z,90.49
2023-05-25T16:49:20.344Z,90.32
2023-05-25T16:51:48.502Z,86.15
2023-05-25T16:54:16.872Z,86.30
2023-05-25T16:56:45.156Z,86.74
2023-05-25T16:59:13.520Z,87.20
2023-05-25T17:01:41.756Z,87.69
2023-05-25T17:04:11.420Z,87.73
2023-05-25T17:06:39.614Z,87.90
2023-05-25T17:09:08.730Z,87.95
2023-05-25T17:11:36.898Z,87.46
2023-05-25T17:14:05.101Z,89.55
2023-05-25T17:16:33.206Z,90.28
2023-05-25T17:19:01.450Z,89.81
2023-05-25T17:21:30.937Z,89.99
2023-05-25T17:23:59.480Z,89.73
2023-05-25T17:26:31.107Z,89.55
2023-05-25T17:29:00.851Z,89.60
2023-05-25T17:31:29.317Z,90.54
2023-05-25T17:33:57.559Z,92.33
2023-05-25T17:36:25.879Z,93.70
2023-05-25T17:38:55.357Z,94.28
2023-05-25T17:41:23.882Z,95.70
2023-05-25T17:43:52.326Z,96.25
2023-05-25T17:46:20.616Z,97.70
2023-05-25T17:48:48.927Z,98.36
2023-05-25T17:51:17.184Z,100.00
2023-05-25T17:53:45.317Z,100.00
2023-05-25T17:56:14.761Z,99.34
2023-05-25T17:58:47.684Z,99.38
2023-05-25T18:01:16.584Z,100.00
2023-05-25T18:03:44.888Z,100.00
2023-05-25T18:06:13.251Z,100.00
2023-05-25T18:08:41.373Z,100.00
2023-05-25T18:11:09.491Z,100.00
2023-05-25T18:13:39.051Z,100.00
2023-05-25T18:16:07.338Z,100.00
2023-05-25T18:18:35.616Z,100.00
2023-05-25T18:21:03.926Z,100.00
2023-05-25T18:23:32.763Z,100.00
2023-05-25T18:26:01.131Z,100.00
2023-05-25T18:28:31.287Z,100.00
2023-05-25T18:31:01.183Z,100.00
2023-05-25T18:33:29.694Z,100.00
2023-05-25T18:35:58.647Z,100.00
2023-05-25T18:38:26.862Z,100.00
2023-05-25T18:40:55.314Z,100.00
2023-05-25T18:43:23.330Z,100.00
2023-05-25T18:45:51.641Z,100.00
2023-05-25T18:48:23.737Z,100.00
2023-05-25T18:50:52.184Z,100.00
2023-05-25T18:53:20.529Z,100.00
2023-05-25T18:55:48.554Z,100.00
2023-05-25T18:58:16.811Z,100.00
2023-05-25T19:00:44.907Z,100.00
2023-05-25T19:03:13.099Z,100.00
2023-05-25T19:05:43.044Z,100.00
2023-05-25T19:08:11.292Z,100.00
2023-05-25T19:10:41.695Z,100.00
2023-05-25T19:13:10.151Z,100.00
2023-05-25T19:15:38.337Z,100.00
2023-05-25T19:18:06.845Z,100.00
2023-05-25T19:20:36.024Z,100.00
2023-05-25T19:23:06.304Z,100.00
2023-05-25T19:25:34.687Z,100.00
2023-05-25T19:28:03.484Z,100.00
2023-05-25T19:30:31.860Z,100.00
2023-05-25T19:33:00.067Z,100.00
2023-05-25T19:35:28.377Z,100.00
2023-05-25T19:37:56.603Z,100.00
2023-05-25T19:40:26.247Z,100.00
2023-05-25T19:42:54.355Z,100.00
2023-05-25T19:45:22.606Z,100.00
2023-05-25T19:47:52.095Z,100.00
2023-05-25T19:50:20.251Z,100.00
2023-05-25T19:52:48.374Z,100.00
2023-05-25T19:55:16.566Z,100.00
2023-05-25T19:57:45.967Z,100.00
2023-05-25T20:00:25.441Z,100.00
2023-05-25T20:02:54.814Z,100.00
2023-05-25T20:05:23.176Z,100.00
2023-05-25T20:07:52.721Z,100.00
2023-05-25T20:10:21.113Z,100.00
2023-05-25T20:12:50.624Z,100.00
2023-05-25T20:15:18.796Z,100.00
2023-05-25T20:17:46.917Z,100.00
2023-05-25T20:20:15.862Z,100.00
2023-05-25T20:22:44.209Z,100.00
2023-05-25T20:25:12.358Z,100.00
2023-05-25T20:27:40.520Z,100.00
2023-05-25T20:30:12.755Z,100.00
2023-05-25T20:32:42.440Z,100.00
2023-05-25T20:35:10.963Z,100.00
2023-05-25T20:37:42.264Z,100.00
2023-05-25T20:40:10.871Z,100.00
2023-05-25T20:42:39.083Z,100.00
2023-05-25T20:45:10.012Z,100.00
2023-05-25T20:47:40.729Z,100.00
2023-05-25T20:50:09.425Z,100.00
2023-05-25T20:52:37.587Z,100.00
2023-05-25T20:55:06.804Z,100.00
2023-05-25T20:57:35.172Z,100.00
2023-05-25T21:00:03.742Z,100.00
2023-05-25T21:02:33.559Z,100.00
2023-05-25T21:05:01.841Z,100.00
2023-05-25T21:07:30.114Z,100.00
2023-05-25T21:09:59.515Z,100.00
2023-05-25T21:12:27.849Z,100.00
2023-05-25T21:14:56.154Z,100.00
2023-05-25T21:17:24.478Z,100.00
2023-05-25T21:19:54.002Z,100.00
2023-05-25T21:22:22.191Z,100.00
2023-05-25T21:24:50.633Z,100.00
2023-05-25T21:27:18.929Z,100.00
2023-05-25T21:29:47.132Z,100.00
2023-05-25T21:32:15.404Z,100.00
2023-05-25T21:34:43.628Z,100.00
2023-05-25T21:37:13.201Z,100.00
2023-05-25T21:39:41.243Z,100.00
2023-05-25T21:42:10.798Z,100.00
2023-05-25T21:44:38.984Z,100.00
2023-05-25T21:47:07.291Z,100.00
2023-05-25T21:49:35.662Z,100.00
2023-05-25T21:52:05.309Z,100.00
2023-05-25T21:54:34.963Z,100.00
2023-05-25T21:57:03.876Z,100.00
2023-05-25T21:59:32.145Z,100.00
2023-05-25T22:02:00.373Z,100.00
2023-05-25T22:04:28.540Z,100.00
2023-05-25T22:06:57.173Z,100.00
2023-05-25T22:09:25.464Z,100.00
2023-05-25T22:11:54.977Z,100.00
2023-05-25T22:14:23.184Z,100.00
2023-05-25T22:16:51.484Z,100.00
2023-05-25T22:19:19.752Z,100.00
2023-05-25T22:21:48.831Z,100.00
2023-05-25T22:24:16.966Z,100.00
2023-05-25T22:26:45.146Z,100.00
2023-05-25T22:29:15.780Z,100.00
2023-05-25T22:31:43.953Z,100.00
2023-05-25T22:34:12.008Z,100.00
2023-05-25T22:36:40.058Z,100.00
2023-05-25T22:39:08.386Z,100.00
2023-05-25T22:41:36.548Z,100.00
2023-05-25T22:44:04.830Z,100.00
2023-05-25T22:46:34.314Z,100.00
2023-05-25T22:49:02.433Z,100.00
2023-05-25T22:51:30.608Z,100.00
2023-05-25T22:53:58.817Z,100.00
2023-05-25T22:56:27.726Z,100.00
2023-05-25T22:58:56.760Z,100.00
2023-05-25T23:01:24.917Z,100.00
2023-05-25T23:03:54.523Z,100.00
2023-05-25T23:06:22.768Z,100.00
2023-05-25T23:08:51.052Z,100.00
2023-05-25T23:11:19.386Z,100.00
2023-05-25T23:13:47.634Z,100.00
2023-05-25T23:16:18.789Z,100.00
2023-05-25T23:18:46.997Z,100.00
2023-05-25T23:21:16.518Z,100.00
2023-05-25T23:23:44.676Z,100.00
2023-05-25T23:26:12.846Z,100.00
2023-05-25T23:28:41.112Z,100.00
2023-05-25T23:31:09.395Z,100.00
2023-05-25T23:33:37.538Z,100.00
2023-05-25T23:36:06.104Z,100.00
2023-05-25T23:38:35.669Z,100.00
2023-05-25T23:41:03.791Z,100.00
2023-05-25T23:43:31.928Z,100.00
2023-05-25T23:46:00.165Z,100.00
2023-05-25T23:48:28.442Z,100.00
2023-05-25T23:50:56.620Z,100.00
2023-05-25T23:53:24.626Z,100.00
2023-05-25T23:55:54.055Z,100.00
2023-05-25T23:58:22.209Z,100.00
